createdAt,value
2019-01-18T00:00:31.338Z,2.18
2019-01-18T00:01:31.517Z,2.16
2019-01-18T00:02:31.700Z,2.21
2019-01-18T00:03:31.882Z,2.18
2019-01-18T00:04:32.062Z,2.12
2019-01-18T00:05:32.242Z,2.16
2019-01-18T00:06:32.423Z,2.18
2019-01-18T00:07:32.599Z,2.12
2019-01-18T00:08:32.777Z,2.07
2019-01-18T00:09:32.959Z,2.07
2019-01-18T00:10:33.136Z,2.05
2019-01-18T00:11:33.311Z,2.10
2019-01-18T00:12:33.499Z,2.09
2019-01-18T00:13:33.678Z,2.07
2019-01-18T00:14:33.861Z,2.05
2019-01-18T00:15:34.042Z,2.09
2019-01-18T00:16:34.220Z,2.09
2019-01-18T00:17:34.398Z,2.09
2019-01-18T00:18:34.574Z,2.14
2019-01-18T00:19:34.756Z,2.14
2019-01-18T00:20:34.931Z,2.17
2019-01-18T00:21:35.116Z,2.12
2019-01-18T00:22:35.295Z,2.23
2019-01-18T00:23:35.474Z,2.18
2019-01-18T00:24:35.649Z,2.18
2019-01-18T00:25:35.828Z,2.16
2019-01-18T00:26:36.000Z,2.25
2019-01-18T00:27:36.189Z,2.25
2019-01-18T00:28:36.368Z,2.20
2019-01-18T00:29:36.554Z,2.34
2019-01-18T00:30:36.724Z,2.34
2019-01-18T00:31:36.902Z,2.36
2019-01-18T00:32:37.081Z,2.39
2019-01-18T00:33:37.274Z,2.45
2019-01-18T00:34:37.451Z,2.53
2019-01-18T00:35:37.643Z,2.52
2019-01-18T00:36:37.802Z,2.46
2019-01-18T00:37:37.984Z,2.53
2019-01-18T00:38:38.166Z,2.38
2019-01-18T00:39:38.342Z,2.39
2019-01-18T00:40:38.523Z,2.41
2019-01-18T00:41:38.700Z,2.36
2019-01-18T00:42:38.881Z,2.36
2019-01-18T00:43:39.074Z,2.28
2019-01-18T00:44:39.239Z,2.27
2019-01-18T00:45:39.421Z,2.27
2019-01-18T00:46:39.598Z,2.16
2019-01-18T00:47:39.774Z,2.34
2019-01-18T00:48:39.947Z,2.24
2019-01-18T00:49:40.143Z,2.16
2019-01-18T00:50:40.329Z,2.31
2019-01-18T00:51:40.503Z,2.28
2019-01-18T00:52:40.687Z,2.27
2019-01-18T00:53:40.868Z,2.24
2019-01-18T00:54:41.045Z,2.21
2019-01-18T00:55:41.218Z,2.31
2019-01-18T00:56:41.398Z,2.20
2019-01-18T00:57:41.576Z,2.17
2019-01-18T00:58:41.754Z,2.24
2019-01-18T00:59:41.936Z,2.23
2019-01-18T01:00:42.118Z,2.25
2019-01-18T01:01:42.292Z,2.18
2019-01-18T01:02:42.471Z,2.23
2019-01-18T01:03:42.657Z,2.17
2019-01-18T01:04:42.833Z,2.17
2019-01-18T01:05:43.009Z,2.21
2019-01-18T01:06:43.209Z,2.20
2019-01-18T01:07:43.371Z,2.12
2019-01-18T01:08:43.565Z,2.17
2019-01-18T01:09:43.741Z,2.09
2019-01-18T01:10:43.919Z,2.20
2019-01-18T01:11:44.102Z,2.20
2019-01-18T01:12:44.282Z,2.16
2019-01-18T01:13:44.467Z,2.14
2019-01-18T01:14:44.645Z,2.16
2019-01-18T01:15:44.818Z,2.18
2019-01-18T01:16:45.000Z,2.23
2019-01-18T01:17:45.184Z,2.25
2019-01-18T01:18:45.356Z,2.31
2019-01-18T01:19:45.538Z,2.31
2019-01-18T01:20:45.724Z,2.28
2019-01-18T01:21:45.899Z,2.35
2019-01-18T01:22:46.074Z,2.23
2019-01-18T01:23:46.252Z,2.30
2019-01-18T01:24:46.482Z,2.28
2019-01-18T01:25:46.611Z,2.24
2019-01-18T01:26:46.794Z,2.30
2019-01-18T01:27:46.973Z,2.27
2019-01-18T01:28:47.149Z,2.34
2019-01-18T01:29:47.330Z,2.34
2019-01-18T01:30:47.508Z,2.35
2019-01-18T01:31:47.689Z,2.41
2019-01-18T01:32:47.866Z,2.43
2019-01-18T01:33:48.043Z,2.45
2019-01-18T01:34:48.223Z,2.45
2019-01-18T01:35:48.403Z,2.52
2019-01-18T01:36:48.588Z,2.41
2019-01-18T01:37:48.759Z,2.45
2019-01-18T01:38:48.944Z,2.36
2019-01-18T01:39:49.122Z,2.38
2019-01-18T01:40:49.297Z,2.46
2019-01-18T01:41:49.477Z,2.43
2019-01-18T01:42:49.655Z,2.39
2019-01-18T01:43:49.839Z,2.48
2019-01-18T01:44:50.019Z,2.43
2019-01-18T01:45:50.198Z,2.43
2019-01-18T01:46:50.377Z,2.48
2019-01-18T01:47:50.570Z,2.42
2019-01-18T01:48:50.751Z,2.43
2019-01-18T01:49:50.928Z,2.45
2019-01-18T01:50:51.100Z,2.31
2019-01-18T01:51:51.278Z,2.36
2019-01-18T01:52:51.471Z,2.34
2019-01-18T01:53:51.652Z,2.31
2019-01-18T01:54:51.840Z,2.41
2019-01-18T01:55:52.013Z,2.20
2019-01-18T01:56:52.193Z,2.18
2019-01-18T01:57:52.370Z,2.23
2019-01-18T01:58:52.553Z,2.27
2019-01-18T01:59:52.733Z,2.31
2019-01-18T02:00:52.910Z,2.25
2019-01-18T02:01:53.090Z,2.35
2019-01-18T02:02:53.266Z,2.31
2019-01-18T02:03:53.445Z,2.34
2019-01-18T02:04:53.626Z,2.41
2019-01-18T02:05:53.801Z,2.35
2019-01-18T02:06:53.985Z,2.34
2019-01-18T02:07:54.171Z,2.35
2019-01-18T02:08:54.353Z,2.46
2019-01-18T02:09:54.531Z,2.36
2019-01-18T02:10:54.713Z,2.31
2019-01-18T02:11:54.887Z,2.34
2019-01-18T02:12:55.069Z,2.52
2019-01-18T02:13:55.250Z,2.38
2019-01-18T02:14:55.422Z,2.43
2019-01-18T02:15:55.597Z,2.52
2019-01-18T02:16:55.784Z,2.48
2019-01-18T02:17:56.011Z,2.41
2019-01-18T02:18:56.143Z,2.38
2019-01-18T02:19:56.326Z,2.48
2019-01-18T02:20:56.517Z,2.41
2019-01-18T02:21:56.679Z,2.59
2019-01-18T02:22:56.864Z,2.49
2019-01-18T02:23:57.036Z,2.42
2019-01-18T02:24:57.209Z,2.42
2019-01-18T02:25:57.391Z,2.42
2019-01-18T02:26:57.567Z,2.39
2019-01-18T02:27:57.756Z,2.35
2019-01-18T02:28:57.933Z,2.41
2019-01-18T02:29:58.115Z,2.38
2019-01-18T02:30:58.288Z,2.42
2019-01-18T02:31:58.488Z,2.42
2019-01-18T02:32:58.652Z,2.41
2019-01-18T02:33:58.827Z,2.52
2019-01-18T02:34:59.004Z,2.34
2019-01-18T02:35:59.185Z,2.49
2019-01-18T02:36:59.362Z,2.49
2019-01-18T02:37:59.529Z,2.60
2019-01-18T02:38:59.726Z,2.54
2019-01-18T02:39:59.894Z,2.53
2019-01-18T02:41:00.080Z,2.52
2019-01-18T02:42:00.269Z,2.56
2019-01-18T02:43:00.433Z,2.63
2019-01-18T02:44:00.617Z,2.60
2019-01-18T02:45:00.789Z,2.67
2019-01-18T02:46:00.968Z,2.66
2019-01-18T02:47:01.150Z,2.63
2019-01-18T02:48:01.339Z,2.60
2019-01-18T02:49:01.512Z,2.63
2019-01-18T02:50:01.687Z,2.63
2019-01-18T02:51:01.863Z,2.77
2019-01-18T02:52:02.047Z,2.66
2019-01-18T02:53:02.232Z,2.56
2019-01-18T02:54:02.403Z,2.45
2019-01-18T02:55:02.592Z,2.57
2019-01-18T02:56:02.759Z,2.54
2019-01-18T02:57:02.941Z,2.49
2019-01-18T02:58:03.118Z,2.34
2019-01-18T02:59:03.304Z,2.16
2019-01-18T03:00:04.958Z,2.28
2019-01-18T03:01:03.664Z,2.18
2019-01-18T03:02:03.836Z,2.21
2019-01-18T03:03:04.022Z,2.24
2019-01-18T03:04:04.194Z,2.27
2019-01-18T03:05:04.377Z,2.28
2019-01-18T03:06:04.554Z,2.35
2019-01-18T03:07:04.739Z,2.24
2019-01-18T03:08:04.913Z,2.39
2019-01-18T03:09:05.093Z,2.30
2019-01-18T03:10:05.277Z,2.39
2019-01-18T03:11:05.462Z,2.31
2019-01-18T03:12:05.651Z,2.38
2019-01-18T03:13:05.843Z,2.34
2019-01-18T03:14:06.005Z,2.23
2019-01-18T03:15:06.185Z,2.20
2019-01-18T03:16:06.369Z,2.23
2019-01-18T03:17:06.541Z,2.30
2019-01-18T03:18:06.723Z,1.99
2019-01-18T03:19:06.908Z,2.07
2019-01-18T03:20:07.089Z,2.10
2019-01-18T03:21:07.266Z,2.00
2019-01-18T03:22:07.448Z,2.07
2019-01-18T03:23:07.625Z,1.93
2019-01-18T03:24:07.806Z,1.91
2019-01-18T03:25:07.989Z,2.02
2019-01-18T03:26:08.174Z,2.07
2019-01-18T03:27:08.351Z,2.14
2019-01-18T03:28:08.529Z,2.07
2019-01-18T03:29:08.708Z,2.07
2019-01-18T03:30:18.040Z,2.06
2019-01-18T03:31:09.070Z,2.03
2019-01-18T03:32:09.246Z,1.87
2019-01-18T03:33:09.437Z,2.00
2019-01-18T03:34:09.600Z,2.03
2019-01-18T03:35:09.778Z,1.99
2019-01-18T03:36:09.963Z,2.07
2019-01-18T03:37:10.145Z,2.02
2019-01-18T03:38:10.324Z,2.06
2019-01-18T03:39:10.498Z,2.17
2019-01-18T03:40:10.682Z,2.27
2019-01-18T03:41:10.864Z,2.31
2019-01-18T03:42:11.027Z,2.14
2019-01-18T03:43:11.208Z,2.14
2019-01-18T03:44:11.387Z,2.25
2019-01-18T03:45:11.561Z,2.21
2019-01-18T03:46:11.748Z,2.25
2019-01-18T03:47:11.927Z,2.31
2019-01-18T03:48:12.107Z,2.16
2019-01-18T03:49:12.285Z,2.23
2019-01-18T03:50:12.464Z,2.23
2019-01-18T03:51:12.654Z,2.17
2019-01-18T03:52:12.828Z,2.21
2019-01-18T03:53:13.011Z,2.16
2019-01-18T03:54:13.186Z,2.25
2019-01-18T03:55:13.373Z,2.31
2019-01-18T03:56:13.556Z,2.23
2019-01-18T03:57:13.738Z,2.18
2019-01-18T03:58:13.915Z,2.28
2019-01-18T03:59:14.106Z,2.20
2019-01-18T04:00:14.281Z,2.24
2019-01-18T04:01:14.455Z,2.23
2019-01-18T04:02:14.633Z,2.35
2019-01-18T04:03:14.798Z,2.38
2019-01-18T04:04:14.994Z,2.36
2019-01-18T04:05:15.175Z,2.36
2019-01-18T04:06:15.353Z,2.42
2019-01-18T04:07:15.530Z,2.38
2019-01-18T04:08:15.716Z,2.39
2019-01-18T04:09:15.894Z,2.38
2019-01-18T04:10:16.077Z,2.46
2019-01-18T04:11:16.250Z,2.39
2019-01-18T04:12:16.427Z,2.42
2019-01-18T04:13:16.613Z,2.23
2019-01-18T04:14:16.784Z,2.36
2019-01-18T04:15:16.966Z,2.35
2019-01-18T04:16:17.148Z,2.41
2019-01-18T04:17:17.329Z,2.41
2019-01-18T04:18:17.507Z,2.38
2019-01-18T04:19:17.689Z,2.36
2019-01-18T04:20:17.863Z,2.45
2019-01-18T04:21:18.045Z,2.36
2019-01-18T04:22:18.219Z,2.42
2019-01-18T04:23:18.395Z,2.34
2019-01-18T04:24:18.577Z,2.31
2019-01-18T04:25:18.766Z,2.21
2019-01-18T04:26:18.945Z,2.12
2019-01-18T04:27:19.127Z,2.10
2019-01-18T04:28:19.309Z,2.12
2019-01-18T04:29:19.483Z,2.14
2019-01-18T04:30:19.664Z,2.09
2019-01-18T04:31:19.831Z,2.17
2019-01-18T04:32:20.019Z,2.12
2019-01-18T04:33:20.199Z,2.07
2019-01-18T04:34:20.380Z,2.09
2019-01-18T04:35:20.567Z,2.06
2019-01-18T04:36:20.738Z,2.12
2019-01-18T04:37:20.931Z,2.03
2019-01-18T04:38:21.088Z,2.03
2019-01-18T04:39:21.267Z,2.06
2019-01-18T04:40:21.453Z,2.03
2019-01-18T04:41:21.631Z,1.99
2019-01-18T04:42:21.819Z,2.02
2019-01-18T04:43:21.987Z,2.00
2019-01-18T04:44:22.176Z,1.95
2019-01-18T04:45:22.357Z,1.91
2019-01-18T04:46:22.539Z,1.81
2019-01-18T04:47:22.719Z,1.91
2019-01-18T04:48:22.902Z,2.03
2019-01-18T04:49:23.080Z,2.09
2019-01-18T04:50:23.255Z,2.03
2019-01-18T04:51:23.434Z,2.06
2019-01-18T04:52:23.612Z,2.10
2019-01-18T04:53:23.791Z,1.98
2019-01-18T04:54:23.974Z,2.05
2019-01-18T04:55:24.150Z,1.87
2019-01-18T04:56:24.335Z,1.81
2019-01-18T04:57:24.505Z,1.87
2019-01-18T04:58:24.691Z,1.80
2019-01-18T04:59:24.861Z,1.80
2019-01-18T05:00:25.040Z,1.83
2019-01-18T05:01:25.218Z,1.90
2019-01-18T05:02:25.401Z,1.90
2019-01-18T05:03:25.576Z,1.81
2019-01-18T05:04:25.761Z,1.93
2019-01-18T05:05:25.939Z,1.91
2019-01-18T05:06:26.124Z,1.88
2019-01-18T05:07:26.327Z,1.83
2019-01-18T05:08:26.480Z,1.80
2019-01-18T05:09:26.660Z,1.87
2019-01-18T05:10:26.840Z,1.90
2019-01-18T05:11:27.021Z,1.98
2019-01-18T05:12:27.194Z,1.91
2019-01-18T05:13:27.379Z,1.86
2019-01-18T05:14:27.557Z,1.83
2019-01-18T05:15:27.825Z,1.80
2019-01-18T05:16:27.923Z,1.83
2019-01-18T05:17:28.105Z,1.69
2019-01-18T05:18:28.287Z,1.80
2019-01-18T05:19:28.468Z,1.73
2019-01-18T05:20:28.651Z,1.70
2019-01-18T05:21:28.825Z,1.77
2019-01-18T05:22:29.013Z,1.66
2019-01-18T05:23:29.184Z,1.58
2019-01-18T05:24:29.365Z,1.63
2019-01-18T05:25:29.543Z,1.51
2019-01-18T05:26:29.720Z,1.50
2019-01-18T05:27:29.897Z,1.37
2019-01-18T05:28:30.079Z,1.40
2019-01-18T05:29:30.254Z,1.36
2019-01-18T05:30:30.428Z,1.22
2019-01-18T05:31:30.610Z,1.24
2019-01-18T05:32:30.792Z,1.20
2019-01-18T05:33:30.969Z,1.16
2019-01-18T05:34:31.147Z,1.22
2019-01-18T05:35:31.326Z,1.11
2019-01-18T05:36:31.506Z,0.98
2019-01-18T05:37:31.682Z,1.11
2019-01-18T05:38:31.859Z,1.02
2019-01-18T05:39:32.041Z,0.93
2019-01-18T05:40:32.222Z,0.97
2019-01-18T05:41:32.391Z,0.87
2019-01-18T05:42:32.570Z,0.90
2019-01-18T05:43:32.753Z,0.88
2019-01-18T05:44:32.928Z,0.80
2019-01-18T05:45:33.107Z,0.84
2019-01-18T05:46:33.286Z,0.90
2019-01-18T05:47:33.465Z,0.90
2019-01-18T05:48:33.646Z,0.80
2019-01-18T05:49:33.824Z,0.78
2019-01-18T05:50:34.001Z,0.79
2019-01-18T05:51:34.178Z,0.70
2019-01-18T05:52:34.358Z,0.68
2019-01-18T05:53:34.533Z,0.76
2019-01-18T05:54:34.724Z,0.72
2019-01-18T05:55:35.162Z,0.78
2019-01-18T05:56:35.089Z,0.69
2019-01-18T05:57:35.281Z,0.69
2019-01-18T05:58:35.449Z,0.62
2019-01-18T05:59:35.629Z,0.58
2019-01-18T06:00:35.818Z,0.53
2019-01-18T06:01:35.992Z,0.39
2019-01-18T06:02:36.171Z,0.33
2019-01-18T06:03:36.346Z,0.35
2019-01-18T06:04:36.526Z,0.39
2019-01-18T06:05:36.697Z,0.38
2019-01-18T06:06:36.877Z,0.39
2019-01-18T06:07:37.058Z,0.35
2019-01-18T06:08:37.234Z,0.24
2019-01-18T06:09:37.422Z,0.21
2019-01-18T06:10:37.613Z,0.28
2019-01-18T06:11:37.782Z,0.13
2019-01-18T06:12:38.014Z,0.14
2019-01-18T06:13:38.189Z,0.11
2019-01-18T06:14:38.370Z,0.02
2019-01-18T06:15:38.547Z,0.15
2019-01-18T06:16:38.724Z,0.11
2019-01-18T06:17:38.902Z,-0.03
2019-01-18T06:18:39.081Z,-0.05
2019-01-18T06:19:39.260Z,-0.01
2019-01-18T06:20:39.443Z,-0.11
2019-01-18T06:21:39.620Z,-0.16
2019-01-18T06:22:39.794Z,-0.14
2019-01-18T06:23:39.985Z,-0.08
2019-01-18T06:24:40.162Z,-0.28
2019-01-18T06:25:40.337Z,-0.25
2019-01-18T06:26:40.527Z,-0.36
2019-01-18T06:27:40.691Z,-0.29
2019-01-18T06:28:40.868Z,-0.34
2019-01-18T06:29:41.069Z,-0.36
2019-01-18T06:30:41.241Z,-0.39
2019-01-18T06:31:41.420Z,-0.40
2019-01-18T06:32:41.598Z,-0.47
2019-01-18T06:33:41.782Z,-0.37
2019-01-18T06:34:41.964Z,-0.40
2019-01-18T06:35:42.140Z,-0.49
2019-01-18T06:36:42.324Z,-0.52
2019-01-18T06:37:42.495Z,-0.61
2019-01-18T06:38:42.676Z,-0.57
2019-01-18T06:39:42.846Z,-0.57
2019-01-18T06:40:43.024Z,-0.55
2019-01-18T06:41:43.213Z,-0.61
2019-01-18T06:42:43.397Z,-0.62
2019-01-18T06:43:43.568Z,-0.62
2019-01-18T06:44:43.747Z,-0.58
2019-01-18T06:45:43.924Z,-0.62
2019-01-18T06:46:44.110Z,-0.69
2019-01-18T06:47:44.284Z,-0.70
2019-01-18T06:48:44.467Z,-0.69
2019-01-18T06:49:44.641Z,-0.70
2019-01-18T06:50:44.821Z,-0.65
2019-01-18T06:51:45.002Z,-0.73
2019-01-18T06:52:45.189Z,-0.72
2019-01-18T06:53:45.362Z,-0.78
2019-01-18T06:54:45.557Z,-0.78
2019-01-18T06:55:45.735Z,-0.80
2019-01-18T06:56:45.912Z,-0.80
2019-01-18T06:57:46.087Z,-0.79
2019-01-18T06:58:46.268Z,-0.78
2019-01-18T06:59:46.447Z,-0.83
2019-01-18T07:00:46.618Z,-0.78
2019-01-18T07:01:46.810Z,-0.76
2019-01-18T07:02:46.986Z,-0.69
2019-01-18T07:03:47.167Z,-0.69
2019-01-18T07:04:47.346Z,-0.67
2019-01-18T07:05:47.522Z,-0.73
2019-01-18T07:06:47.707Z,-0.75
2019-01-18T07:07:47.886Z,-0.80
2019-01-18T07:08:48.079Z,-0.78
2019-01-18T07:09:48.263Z,-0.83
2019-01-18T07:10:48.439Z,-0.91
2019-01-18T07:11:48.618Z,-0.86
2019-01-18T07:12:48.790Z,-0.85
2019-01-18T07:13:48.969Z,-0.83
2019-01-18T07:14:49.175Z,-0.75
2019-01-18T07:15:49.346Z,-0.86
2019-01-18T07:16:49.521Z,-0.69
2019-01-18T07:17:49.701Z,-0.70
2019-01-18T07:18:49.888Z,-0.65
2019-01-18T07:19:50.084Z,-0.69
2019-01-18T07:20:50.259Z,-0.75
2019-01-18T07:21:50.429Z,-0.67
2019-01-18T07:22:50.606Z,-0.65
2019-01-18T07:23:50.791Z,-0.64
2019-01-18T07:24:50.963Z,-0.60
2019-01-18T07:25:51.140Z,-0.60
2019-01-18T07:26:51.320Z,-0.49
2019-01-18T07:27:51.497Z,-0.34
2019-01-18T07:28:51.830Z,-0.37
2019-01-18T07:29:51.860Z,-0.29
2019-01-18T07:30:52.045Z,-0.23
2019-01-18T07:31:52.224Z,-0.11
2019-01-18T07:32:52.428Z,-0.10
2019-01-18T07:33:52.578Z,-0.10
2019-01-18T07:34:52.756Z,0.15
2019-01-18T07:35:52.926Z,0.31
2019-01-18T07:36:53.112Z,0.62
2019-01-18T07:37:53.284Z,0.84
2019-01-18T07:38:53.478Z,0.91
2019-01-18T07:39:53.649Z,1.16
2019-01-18T07:40:53.828Z,1.45
2019-01-18T07:41:54.013Z,1.55
2019-01-18T07:42:54.190Z,1.41
2019-01-18T07:43:54.368Z,1.60
2019-01-18T07:44:54.552Z,2.27
2019-01-18T07:45:54.738Z,2.85
2019-01-18T07:46:54.920Z,3.31
2019-01-18T07:47:55.098Z,3.58
2019-01-18T07:48:55.279Z,3.66
2019-01-18T07:49:55.461Z,3.70
2019-01-18T07:50:55.645Z,3.94
2019-01-18T07:51:55.824Z,3.98
2019-01-18T07:52:56.006Z,4.00
2019-01-18T07:53:56.189Z,4.23
2019-01-18T07:54:56.373Z,4.66
2019-01-18T07:55:56.551Z,4.99
2019-01-18T07:56:56.740Z,5.51
2019-01-18T07:57:56.930Z,5.81
2019-01-18T07:58:57.106Z,6.37
2019-01-18T07:59:57.292Z,6.91
2019-01-18T08:00:57.610Z,7.23
2019-01-18T08:01:57.662Z,7.57
2019-01-18T08:02:57.893Z,7.68
2019-01-18T08:03:58.025Z,7.97
2019-01-18T08:04:58.241Z,8.19
2019-01-18T08:05:58.422Z,8.45
2019-01-18T08:06:58.614Z,8.38
2019-01-18T08:07:58.807Z,8.45
2019-01-18T08:08:59.003Z,8.47
2019-01-18T08:09:59.191Z,8.65
2019-01-18T08:10:59.390Z,8.62
2019-01-18T08:11:59.570Z,8.77
2019-01-18T08:12:59.767Z,8.68
2019-01-18T08:13:59.958Z,9.02
2019-01-18T08:15:00.168Z,9.26
2019-01-18T08:16:00.338Z,9.15
2019-01-18T08:17:00.527Z,9.05
2019-01-18T08:18:00.725Z,9.33
2019-01-18T08:19:00.903Z,8.98
2019-01-18T08:20:01.100Z,9.17
2019-01-18T08:21:01.294Z,9.11
2019-01-18T08:22:01.491Z,9.74
2019-01-18T08:23:01.668Z,9.81
2019-01-18T08:24:01.861Z,9.40
2019-01-18T08:25:02.062Z,9.15
2019-01-18T08:26:02.258Z,8.89
2019-01-18T08:27:02.444Z,8.61
2019-01-18T08:28:02.654Z,8.33
2019-01-18T08:29:02.824Z,7.60
2019-01-18T08:30:03.020Z,6.84
2019-01-18T08:31:03.197Z,5.93
2019-01-18T08:32:03.402Z,5.42
2019-01-18T08:33:03.599Z,4.54
2019-01-18T08:34:03.793Z,4.44
2019-01-18T08:35:04.001Z,4.50
2019-01-18T08:36:04.197Z,4.67
2019-01-18T08:37:04.373Z,4.99
2019-01-18T08:38:04.584Z,5.51
2019-01-18T08:39:04.771Z,5.76
2019-01-18T08:40:04.958Z,6.56
2019-01-18T08:41:05.145Z,6.67
2019-01-18T08:42:05.343Z,6.79
2019-01-18T08:43:05.525Z,7.13
2019-01-18T08:44:05.725Z,7.20
2019-01-18T08:45:05.914Z,7.27
2019-01-18T08:46:06.116Z,7.53
2019-01-18T08:47:06.294Z,7.57
2019-01-18T08:48:06.477Z,7.86
2019-01-18T08:49:06.664Z,8.20
2019-01-18T08:50:06.862Z,8.22
2019-01-18T08:51:07.052Z,8.30
2019-01-18T08:52:07.234Z,8.04
2019-01-18T08:53:07.436Z,8.23
2019-01-18T08:54:07.629Z,8.62
2019-01-18T08:55:07.825Z,8.47
2019-01-18T08:56:08.025Z,8.74
2019-01-18T08:57:08.214Z,9.28
2019-01-18T08:58:08.406Z,9.36
2019-01-18T08:59:08.593Z,10.18
2019-01-18T09:00:08.785Z,9.66
2019-01-18T09:01:08.982Z,9.31
2019-01-18T09:02:09.211Z,9.23
2019-01-18T09:03:09.356Z,9.75
2019-01-18T09:04:09.561Z,9.65
2019-01-18T09:05:09.759Z,10.05
2019-01-18T09:06:09.948Z,10.20
2019-01-18T09:07:10.145Z,10.15
2019-01-18T09:08:10.339Z,10.56
2019-01-18T09:09:10.537Z,10.70
2019-01-18T09:10:10.743Z,9.78
2019-01-18T09:11:11.031Z,9.14
2019-01-18T09:12:11.046Z,9.10
2019-01-18T09:13:11.255Z,8.95
2019-01-18T09:14:11.428Z,8.36
2019-01-18T09:15:11.629Z,8.05
2019-01-18T09:16:11.819Z,7.80
2019-01-18T09:17:12.012Z,7.67
2019-01-18T09:18:12.202Z,7.35
2019-01-18T09:19:12.417Z,7.50
2019-01-18T09:20:12.596Z,8.12
2019-01-18T09:21:12.791Z,7.63
2019-01-18T09:22:13.000Z,7.79
2019-01-18T09:23:13.198Z,7.82
2019-01-18T09:24:13.409Z,7.89
2019-01-18T09:25:13.590Z,8.07
2019-01-18T09:26:13.802Z,8.74
2019-01-18T09:27:13.972Z,9.01
2019-01-18T09:28:14.169Z,8.98
2019-01-18T09:29:14.370Z,9.33
2019-01-18T09:30:14.555Z,9.74
2019-01-18T09:31:14.759Z,10.20
2019-01-18T09:32:14.961Z,10.30
2019-01-18T09:33:15.149Z,10.53
2019-01-18T09:34:15.349Z,10.79
2019-01-18T09:35:15.539Z,11.49
2019-01-18T09:36:15.733Z,11.82
2019-01-18T09:37:15.946Z,12.65
2019-01-18T09:38:17.966Z,12.42
2019-01-18T09:39:16.312Z,12.24
2019-01-18T09:40:16.513Z,12.04
2019-01-18T09:41:16.715Z,11.27
2019-01-18T09:42:16.909Z,11.14
2019-01-18T09:43:17.104Z,11.73
2019-01-18T09:44:17.311Z,12.68
2019-01-18T09:45:17.534Z,12.01
2019-01-18T09:46:17.703Z,11.94
2019-01-18T09:47:17.905Z,12.23
2019-01-18T09:48:18.098Z,11.90
2019-01-18T09:49:18.297Z,11.85
2019-01-18T09:50:18.510Z,12.28
2019-01-18T09:51:18.710Z,12.23
2019-01-18T09:52:18.908Z,12.72
2019-01-18T09:53:19.103Z,13.20
2019-01-18T09:54:19.298Z,13.20
2019-01-18T09:55:19.496Z,12.64
2019-01-18T09:56:19.686Z,11.33
2019-01-18T09:57:19.878Z,11.49
2019-01-18T09:58:20.081Z,11.91
2019-01-18T09:59:20.278Z,12.31
2019-01-18T10:00:20.478Z,12.12
2019-01-18T10:01:20.676Z,12.20
2019-01-18T10:02:20.872Z,12.29
2019-01-18T10:03:21.069Z,11.82
2019-01-18T10:04:21.266Z,11.69
2019-01-18T10:05:21.462Z,11.54
2019-01-18T10:06:21.658Z,12.16
2019-01-18T10:07:21.857Z,12.20
2019-01-18T10:08:22.051Z,12.74
2019-01-18T10:09:22.249Z,12.12
2019-01-18T10:10:22.451Z,11.91
2019-01-18T10:11:22.649Z,11.95
2019-01-18T10:12:22.850Z,12.57
2019-01-18T10:13:23.051Z,12.17
2019-01-18T10:14:23.242Z,11.29
2019-01-18T10:15:23.447Z,11.80
2019-01-18T10:16:23.641Z,12.21
2019-01-18T10:17:23.855Z,12.78
2019-01-18T10:18:24.041Z,12.95
2019-01-18T10:19:24.249Z,12.57
2019-01-18T10:20:24.449Z,11.58
2019-01-18T10:21:24.643Z,12.10
2019-01-18T10:22:24.839Z,12.20
2019-01-18T10:23:25.031Z,12.09
2019-01-18T10:24:25.231Z,11.67
2019-01-18T10:25:25.426Z,12.45
2019-01-18T10:26:25.629Z,12.17
2019-01-18T10:27:25.819Z,11.79
2019-01-18T10:28:26.020Z,12.54
2019-01-18T10:29:28.229Z,11.75
2019-01-18T10:30:26.413Z,11.65
2019-01-18T10:31:26.624Z,12.04
2019-01-18T10:32:26.824Z,12.04
2019-01-18T10:33:29.209Z,11.75
2019-01-18T10:34:27.249Z,11.76
2019-01-18T10:35:27.454Z,11.73
2019-01-18T10:36:27.652Z,11.83
2019-01-18T10:37:27.851Z,11.46
2019-01-18T10:38:28.050Z,11.82
2019-01-18T10:39:28.247Z,11.95
2019-01-18T10:40:28.442Z,12.31
2019-01-18T10:41:28.641Z,12.47
2019-01-18T10:42:28.848Z,12.95
2019-01-18T10:43:29.044Z,13.36
2019-01-18T10:44:29.244Z,11.98
2019-01-18T10:45:29.440Z,10.18
2019-01-18T10:46:29.637Z,10.59
2019-01-18T10:47:29.836Z,11.85
2019-01-18T10:48:30.035Z,12.68
2019-01-18T10:49:30.236Z,12.29
2019-01-18T10:50:30.431Z,13.08
2019-01-18T10:51:30.622Z,12.42
2019-01-18T10:52:30.834Z,12.59
2019-01-18T10:53:31.033Z,13.15
2019-01-18T10:54:31.241Z,12.71
2019-01-18T10:55:31.438Z,13.20
2019-01-18T10:56:31.637Z,13.60
2019-01-18T10:57:31.842Z,13.23
2019-01-18T10:58:32.043Z,13.14
2019-01-18T10:59:32.244Z,12.29
2019-01-18T11:00:32.442Z,12.38
2019-01-18T11:01:33.974Z,12.97
2019-01-18T11:02:32.847Z,13.42
2019-01-18T11:03:33.079Z,13.08
2019-01-18T11:04:33.245Z,12.53
2019-01-18T11:05:33.441Z,12.92
2019-01-18T11:06:33.637Z,12.85
2019-01-18T11:07:33.836Z,13.55
2019-01-18T11:08:34.033Z,13.62
2019-01-18T11:09:34.236Z,13.87
2019-01-18T11:10:34.434Z,14.36
2019-01-18T11:11:34.635Z,14.73
2019-01-18T11:12:34.844Z,15.21
2019-01-18T11:13:35.050Z,14.92
2019-01-18T11:14:35.254Z,14.22
2019-01-18T11:15:36.240Z,14.14
2019-01-18T11:16:35.651Z,12.77
2019-01-18T11:17:35.865Z,11.75
2019-01-18T11:18:36.070Z,11.76
2019-01-18T11:19:36.269Z,11.22
2019-01-18T11:20:36.464Z,11.24
2019-01-18T11:21:36.676Z,11.65
2019-01-18T11:22:36.888Z,11.94
2019-01-18T11:23:37.095Z,11.36
2019-01-18T11:24:37.306Z,11.11
2019-01-18T11:25:37.518Z,11.72
2019-01-18T11:26:37.712Z,11.80
2019-01-18T11:27:37.908Z,11.79
2019-01-18T11:28:38.109Z,11.44
2019-01-18T11:29:38.306Z,11.25
2019-01-18T11:30:38.514Z,10.91
2019-01-18T11:31:38.740Z,11.25
2019-01-18T11:32:38.904Z,11.03
2019-01-18T11:33:39.106Z,10.76
2019-01-18T11:34:39.294Z,10.70
2019-01-18T11:35:39.504Z,10.86
2019-01-18T11:36:39.701Z,10.64
2019-01-18T11:37:39.903Z,10.68
2019-01-18T11:38:40.099Z,10.89
2019-01-18T11:39:40.298Z,11.22
2019-01-18T11:40:40.495Z,10.66
2019-01-18T11:41:40.689Z,10.67
2019-01-18T11:42:40.881Z,11.22
2019-01-18T11:43:41.079Z,10.73
2019-01-18T11:44:41.275Z,10.88
2019-01-18T11:45:41.468Z,10.70
2019-01-18T11:46:41.671Z,10.85
2019-01-18T11:47:41.863Z,10.76
2019-01-18T11:48:42.070Z,10.55
2019-01-18T11:49:42.262Z,10.55
2019-01-18T11:50:42.456Z,11.00
2019-01-18T11:51:42.655Z,10.70
2019-01-18T11:52:42.850Z,10.99
2019-01-18T11:53:43.046Z,11.10
2019-01-18T11:54:44.142Z,11.02
2019-01-18T11:55:43.440Z,10.12
2019-01-18T11:56:43.643Z,9.24
2019-01-18T11:57:43.831Z,8.87
2019-01-18T11:58:44.032Z,9.17
2019-01-18T11:59:44.223Z,8.79
2019-01-18T12:00:44.418Z,8.81
2019-01-18T12:01:44.613Z,8.89
2019-01-18T12:02:44.801Z,9.01
2019-01-18T12:03:44.995Z,9.08
2019-01-18T12:04:45.202Z,9.15
2019-01-18T12:05:45.385Z,8.68
2019-01-18T12:06:45.578Z,9.01
2019-01-18T12:07:45.774Z,9.01
2019-01-18T12:08:45.980Z,8.70
2019-01-18T12:09:46.174Z,9.36
2019-01-18T12:10:46.369Z,9.35
2019-01-18T12:11:46.558Z,9.57
2019-01-18T12:12:46.750Z,9.72
2019-01-18T12:13:46.946Z,9.65
2019-01-18T12:14:47.135Z,9.48
2019-01-18T12:15:47.323Z,9.32
2019-01-18T12:16:47.522Z,9.32
2019-01-18T12:17:47.708Z,9.36
2019-01-18T12:18:47.909Z,9.26
2019-01-18T12:19:48.099Z,9.20
2019-01-18T12:20:48.289Z,8.99
2019-01-18T12:21:48.485Z,8.77
2019-01-18T12:22:48.679Z,8.79
2019-01-18T12:23:48.874Z,8.98
2019-01-18T12:24:49.067Z,9.20
2019-01-18T12:25:49.261Z,8.43
2019-01-18T12:26:49.460Z,8.52
2019-01-18T12:27:49.640Z,8.73
2019-01-18T12:28:49.829Z,8.99
2019-01-18T12:29:50.015Z,8.55
2019-01-18T12:30:50.204Z,8.45
2019-01-18T12:31:50.391Z,8.23
2019-01-18T12:32:50.586Z,8.28
2019-01-18T12:33:50.778Z,8.55
2019-01-18T12:34:50.970Z,8.59
2019-01-18T12:35:51.156Z,8.99
2019-01-18T12:36:52.850Z,9.14
2019-01-18T12:37:51.546Z,9.01
2019-01-18T12:38:51.737Z,9.04
2019-01-18T12:39:51.939Z,8.79
2019-01-18T12:40:52.127Z,8.61
2019-01-18T12:41:52.317Z,8.87
2019-01-18T12:42:52.507Z,8.96
2019-01-18T12:43:52.695Z,8.73
2019-01-18T12:44:52.890Z,8.86
2019-01-18T12:45:53.092Z,8.99
2019-01-18T12:46:53.297Z,9.26
2019-01-18T12:47:53.491Z,8.86
2019-01-18T12:48:53.679Z,8.81
2019-01-18T12:49:53.877Z,8.36
2019-01-18T12:50:54.083Z,8.40
2019-01-18T12:51:54.272Z,8.71
2019-01-18T12:52:54.455Z,9.01
2019-01-18T12:53:54.647Z,8.80
2019-01-18T12:54:54.837Z,8.56
2019-01-18T12:55:55.028Z,9.04
2019-01-18T12:56:55.221Z,9.33
2019-01-18T12:57:55.409Z,9.02
2019-01-18T12:58:56.689Z,8.56
2019-01-18T12:59:55.798Z,8.73
2019-01-18T13:00:56.010Z,8.43
2019-01-18T13:01:56.197Z,8.43
2019-01-18T13:02:56.399Z,8.73
2019-01-18T13:03:56.588Z,8.50
2019-01-18T13:04:56.781Z,8.38
2019-01-18T13:05:56.966Z,8.37
2019-01-18T13:06:57.157Z,8.45
2019-01-18T13:07:57.345Z,8.47
2019-01-18T13:08:57.531Z,8.34
2019-01-18T13:09:57.717Z,8.11
2019-01-18T13:10:57.909Z,7.69
2019-01-18T13:11:58.101Z,8.11
2019-01-18T13:12:58.279Z,8.20